BGBW

Narsarsuaq Airport

Narsarsuaq, Greenland
METAR BGBW 240350Z AUTO VRB04KT 9999NDV -RA FEW013/// SCT028/// BKN036/// BKN060/// 03/00 Q0993
Observed Flight Rules
Sep-24 @ 03:50 UTC (16 minutes ago)
Wind Clouds Conditions
Variable at 4 knots
  • Few at 1,300' AGL
  • Scattered at 2,800' AGL
  • Broken at 3,600' AGL
  • Broken at 6,000' AGL
  • Light Rain
Temperatures Readings
Current 3°C / 37°F
Dewpoint 0°C / 32°F
Humidity 81%
Altimeter 29.32" Hg
Pressure 993 hPa
Elevation 26
METAR BGBW 240350Z AUTO VRB04KT 9999NDV -RA FEW013/// SCT028/// BKN036/// BKN060/// 03/00 Q0993
Observed Flight Rules
Sep-24 @ 03:50 UTC
(16 minutes ago)
Wind
Variable at 4 knots
Clouds
  • Few at 1,300' AGL
  • Scattered at 2,800' AGL
  • Broken at 3,600' AGL
  • Broken at 6,000' AGL
Conditions
  • Light Rain
Temperature Dewpoint
3°C / 37°F 0°C / 32°F
Humidity Altimeter Pressure
81% 29.32" Hg 993 hPa